createdAt,value
2022-08-09T00:00:00.466Z,54.28
2022-08-09T00:02:37.257Z,54.53
2022-08-09T00:06:17.348Z,54.56
2022-08-09T00:08:04.139Z,54.79
2022-08-09T00:10:40.723Z,55.21
2022-08-09T00:13:17.019Z,55.78
2022-08-09T00:15:58.814Z,56.08
2022-08-09T00:18:35.629Z,55.57
2022-08-09T00:21:07.855Z,55.99
2022-08-09T00:23:58.162Z,55.93
2022-08-09T00:26:32.145Z,56.56
2022-08-09T00:29:02.135Z,57.18
2022-08-09T00:31:58.578Z,57.35
2022-08-09T00:34:19.360Z,57.50
2022-08-09T00:36:49.946Z,56.93
2022-08-09T00:40:13.967Z,57.03
2022-08-09T00:44:10.259Z,56.66
2022-08-09T00:44:53.750Z,56.83
2022-08-09T00:47:25.003Z,56.58
2022-08-09T00:49:54.875Z,55.83
2022-08-09T00:52:28.163Z,55.92
2022-08-09T00:55:02.269Z,55.69
2022-08-09T00:57:34.511Z,56.28
2022-08-09T01:00:21.825Z,56.62
2022-08-09T01:02:58.248Z,57.10
2022-08-09T01:05:50.951Z,56.79
2022-08-09T01:09:17.627Z,56.44
2022-08-09T01:12:09.120Z,56.08
2022-08-09T01:15:10.083Z,56.24
2022-08-09T01:17:59.545Z,56.04
2022-08-09T01:21:05.631Z,55.58
2022-08-09T01:24:05.030Z,55.77
2022-08-09T01:27:07.872Z,55.56
2022-08-09T01:29:58.020Z,55.49
2022-08-09T01:32:45.286Z,56.04
2022-08-09T01:35:37.792Z,56.12
2022-08-09T01:38:14.936Z,55.54
2022-08-09T01:40:52.456Z,55.62
2022-08-09T01:43:50.233Z,55.46
2022-08-09T01:46:27.495Z,55.32
2022-08-09T01:48:59.625Z,55.92
2022-08-09T01:51:33.075Z,55.46
2022-08-09T01:54:04.049Z,55.57
2022-08-09T01:56:33.920Z,55.48
2022-08-09T01:59:08.296Z,55.87
2022-08-09T02:01:58.070Z,55.42
2022-08-09T02:04:26.392Z,55.92
2022-08-09T02:07:15.524Z,55.67
2022-08-09T02:10:15.358Z,55.94
2022-08-09T02:12:46.028Z,55.37
2022-08-09T02:15:18.226Z,55.68
2022-08-09T02:18:01.601Z,55.71
2022-08-09T02:20:44.248Z,55.61
2022-08-09T02:23:31.999Z,55.75
2022-08-09T02:26:08.187Z,56.61
2022-08-09T02:28:56.350Z,56.54
2022-08-09T02:31:35.544Z,56.56
2022-08-09T02:34:25.827Z,56.96
2022-08-09T02:37:05.725Z,56.50
2022-08-09T02:39:54.918Z,57.19
2022-08-09T02:42:35.043Z,57.10
2022-08-09T02:45:11.744Z,57.07
2022-08-09T02:47:57.559Z,56.86
2022-08-09T02:50:56.155Z,56.97
2022-08-09T02:53:34.921Z,57.43
2022-08-09T02:56:04.543Z,57.03
2022-08-09T02:58:36.639Z,57.36
2022-08-09T03:01:07.733Z,57.43
2022-08-09T03:04:16.727Z,57.68
2022-08-09T03:06:27.639Z,58.18
2022-08-09T03:08:55.596Z,57.90
2022-08-09T03:11:29.917Z,57.32
2022-08-09T03:14:12.938Z,57.49
2022-08-09T03:16:45.273Z,57.21
2022-08-09T03:19:59.683Z,57.72
2022-08-09T03:22:12.473Z,57.57
2022-08-09T03:25:06.371Z,57.74
2022-08-09T03:27:47.566Z,58.21
2022-08-09T03:30:23.635Z,58.44
2022-08-09T03:33:13.036Z,58.80
2022-08-09T03:36:15.933Z,59.00
2022-08-09T03:38:41.982Z,59.21
2022-08-09T03:41:15.530Z,58.75
2022-08-09T03:44:03.341Z,58.91
2022-08-09T03:46:31.348Z,59.04
2022-08-09T03:49:04.015Z,58.98
2022-08-09T03:51:57.222Z,59.00
2022-08-09T03:54:29.560Z,58.42
2022-08-09T03:57:04.397Z,59.02
2022-08-09T03:59:53.230Z,58.75
2022-08-09T04:02:28.733Z,58.55
2022-08-09T04:04:59.199Z,58.57
2022-08-09T04:07:46.974Z,59.33
2022-08-09T04:10:20.307Z,59.74
2022-08-09T04:12:51.491Z,59.08
2022-08-09T04:15:52.043Z,59.18
2022-08-09T04:18:16.513Z,59.15
2022-08-09T04:20:46.979Z,59.46
2022-08-09T04:23:16.831Z,58.91
2022-08-09T04:25:51.777Z,59.11
2022-08-09T04:28:34.027Z,58.52
2022-08-09T04:31:08.406Z,58.91
2022-08-09T04:33:51.930Z,58.92
2022-08-09T04:36:28.332Z,58.84
2022-08-09T04:39:03.102Z,59.02
2022-08-09T04:41:32.153Z,58.95
2022-08-09T04:44:06.995Z,59.28
2022-08-09T04:46:59.647Z,59.63
2022-08-09T04:49:40.363Z,60.27
2022-08-09T04:52:18.557Z,60.12
2022-08-09T04:54:55.864Z,60.64
2022-08-09T04:57:24.195Z,60.92
2022-08-09T04:59:54.601Z,61.04
2022-08-09T05:02:27.097Z,60.35
2022-08-09T05:04:55.313Z,60.27
2022-08-09T05:07:22.815Z,60.78
2022-08-09T05:09:50.317Z,61.22
2022-08-09T05:12:17.472Z,60.88
2022-08-09T05:14:45.418Z,60.76
2022-08-09T05:18:36.680Z,60.62
2022-08-09T05:19:59.436Z,60.85
2022-08-09T05:22:33.198Z,60.82
2022-08-09T05:25:05.333Z,60.13
2022-08-09T05:27:32.267Z,60.22
2022-08-09T05:29:59.176Z,60.25
2022-08-09T05:32:30.032Z,59.66
2022-08-09T05:34:57.204Z,59.73
2022-08-09T05:37:25.229Z,60.13
2022-08-09T05:39:52.497Z,59.40
2022-08-09T05:42:21.225Z,59.92
2022-08-09T05:44:54.108Z,59.68
2022-08-09T05:47:23.182Z,59.37
2022-08-09T05:50:25.629Z,58.94
2022-08-09T05:52:42.014Z,59.05
2022-08-09T05:55:18.108Z,58.54
2022-08-09T05:57:50.927Z,58.99
2022-08-09T06:00:26.972Z,59.19
2022-08-09T06:03:01.748Z,59.18
2022-08-09T06:05:57.591Z,59.08
2022-08-09T06:08:19.362Z,59.21
2022-08-09T06:10:53.390Z,58.92
2022-08-09T06:13:20.981Z,58.86
2022-08-09T06:15:52.867Z,59.45
2022-08-09T06:18:24.841Z,59.21
2022-08-09T06:20:57.759Z,58.95
2022-08-09T06:23:57.519Z,59.55
2022-08-09T06:26:22.102Z,59.20
2022-08-09T06:29:00.004Z,59.02
2022-08-09T06:31:31.207Z,59.25
2022-08-09T06:34:07.332Z,58.98
2022-08-09T06:36:34.483Z,58.80
2022-08-09T06:39:02.674Z,58.80
2022-08-09T06:42:06.375Z,58.57
2022-08-09T06:44:25.408Z,58.53
2022-08-09T06:46:55.410Z,58.46
2022-08-09T06:49:44.875Z,58.27
2022-08-09T06:52:11.946Z,58.15
2022-08-09T06:54:39.214Z,58.28
2022-08-09T06:57:08.602Z,57.65
2022-08-09T07:00:49.453Z,57.64
2022-08-09T07:02:30.880Z,57.32
2022-08-09T07:04:59.822Z,56.99
2022-08-09T07:08:00.767Z,56.38
2022-08-09T07:10:29.385Z,55.61
2022-08-09T07:12:57.655Z,55.42
2022-08-09T07:16:36.393Z,54.81
2022-08-09T07:18:14.285Z,54.75
2022-08-09T07:20:43.808Z,54.66
2022-08-09T07:23:18.719Z,54.61
2022-08-09T07:25:47.139Z,52.92
2022-08-09T07:28:19.005Z,52.56
2022-08-09T07:30:45.985Z,52.21
2022-08-09T07:33:16.659Z,51.91
2022-08-09T07:35:53.907Z,52.07
2022-08-09T07:38:23.289Z,50.90
2022-08-09T07:41:08.150Z,50.46
2022-08-09T07:43:40.970Z,50.31
2022-08-09T07:46:19.330Z,50.79
2022-08-09T07:48:52.745Z,51.19
2022-08-09T07:52:05.844Z,51.38
2022-08-09T07:54:14.109Z,50.71
2022-08-09T07:56:48.756Z,50.82
2022-08-09T07:59:25.723Z,50.25
2022-08-09T08:02:04.976Z,50.19
2022-08-09T08:04:33.206Z,50.38
2022-08-09T08:07:15.319Z,49.39
2022-08-09T08:10:04.784Z,48.32
2022-08-09T08:12:39.976Z,48.16
2022-08-09T08:15:17.846Z,46.93
2022-08-09T08:17:54.663Z,46.97
2022-08-09T08:20:29.574Z,47.01
2022-08-09T08:23:03.719Z,46.88
2022-08-09T08:25:44.406Z,46.76
2022-08-09T08:28:15.194Z,46.59
2022-08-09T08:30:43.910Z,45.64
2022-08-09T08:33:11.912Z,44.58
2022-08-09T08:35:58.500Z,44.60
2022-08-09T08:38:27.910Z,44.74
2022-08-09T08:40:56.637Z,44.03
2022-08-09T08:43:26.456Z,45.01
2022-08-09T08:46:32.711Z,45.09
2022-08-09T08:48:53.680Z,44.70
2022-08-09T08:51:23.054Z,41.99
2022-08-09T08:54:04.062Z,42.52
2022-08-09T08:56:38.183Z,43.27
2022-08-09T08:59:20.192Z,42.54
2022-08-09T09:01:53.077Z,42.32
2022-08-09T09:04:37.815Z,42.44
2022-08-09T09:07:15.799Z,41.48
2022-08-09T09:10:01.897Z,41.53
2022-08-09T09:12:33.973Z,41.52
2022-08-09T09:15:05.728Z,42.05
2022-08-09T09:17:49.293Z,41.72
2022-08-09T09:20:20.634Z,42.35
2022-08-09T09:23:01.895Z,41.85
2022-08-09T09:26:02.034Z,41.89
2022-08-09T09:29:03.030Z,41.06
2022-08-09T09:32:04.048Z,42.20
2022-08-09T09:34:18.195Z,42.85
2022-08-09T09:36:52.759Z,43.17
2022-08-09T09:39:23.610Z,41.62
2022-08-09T09:42:27.743Z,40.58
2022-08-09T09:45:00.369Z,41.20
2022-08-09T09:47:28.819Z,41.26
2022-08-09T09:50:14.987Z,40.71
2022-08-09T09:52:56.522Z,40.19
2022-08-09T09:55:31.310Z,39.16
2022-08-09T09:58:17.376Z,38.33
2022-08-09T10:00:59.167Z,38.81
2022-08-09T10:03:56.289Z,38.93
2022-08-09T10:06:25.175Z,39.59
2022-08-09T10:09:02.822Z,39.54
2022-08-09T10:12:01.412Z,39.18
2022-08-09T10:14:33.058Z,39.36
2022-08-09T10:17:40.177Z,39.75
2022-08-09T10:20:27.617Z,39.56
2022-08-09T10:23:20.064Z,40.27
2022-08-09T10:26:07.415Z,39.49
2022-08-09T10:28:37.404Z,39.36
2022-08-09T10:34:32.299Z,37.79
2022-08-09T10:36:40.012Z,38.08
2022-08-09T10:39:15.780Z,38.60
2022-08-09T10:41:46.251Z,37.64
2022-08-09T10:44:19.371Z,37.50
2022-08-09T10:48:13.144Z,36.95
2022-08-09T10:50:31.143Z,37.47
2022-08-09T10:53:38.044Z,37.12
2022-08-09T10:56:40.533Z,36.71
2022-08-09T10:59:23.217Z,36.05
2022-08-09T11:03:18.328Z,37.00
2022-08-09T11:05:25.461Z,36.74
2022-08-09T11:07:59.478Z,37.08
2022-08-09T11:10:47.296Z,36.67
2022-08-09T11:13:22.074Z,35.92
2022-08-09T11:16:33.598Z,36.56
2022-08-09T11:19:07.966Z,35.87
2022-08-09T11:21:57.115Z,35.92
2022-08-09T11:24:58.024Z,35.64
2022-08-09T11:28:03.972Z,35.22
2022-08-09T11:30:33.606Z,35.15
2022-08-09T11:33:19.118Z,35.44
2022-08-09T11:35:57.481Z,36.06
2022-08-09T11:38:32.275Z,35.72
2022-08-09T11:41:13.170Z,34.95
2022-08-09T11:43:49.363Z,33.96
2022-08-09T11:46:32.894Z,33.69
2022-08-09T11:49:04.910Z,33.70
2022-08-09T11:53:04.097Z,34.16
2022-08-09T11:55:51.593Z,33.41
2022-08-09T11:58:30.460Z,33.70
2022-08-09T12:01:08.765Z,32.81
2022-08-09T12:03:56.768Z,33.96
2022-08-09T12:06:32.876Z,34.26
2022-08-09T12:09:15.283Z,33.79
2022-08-09T12:12:03.239Z,33.57
2022-08-09T12:14:40.676Z,33.30
2022-08-09T12:17:28.088Z,33.08
2022-08-09T12:20:16.685Z,33.33
2022-08-09T12:22:59.833Z,32.31
2022-08-09T12:25:31.847Z,32.77
2022-08-09T12:28:59.036Z,33.24
2022-08-09T12:31:10.720Z,33.79
2022-08-09T12:33:58.528Z,33.41
2022-08-09T12:36:32.257Z,34.05
2022-08-09T12:39:02.293Z,34.71
2022-08-09T12:41:39.093Z,34.85
2022-08-09T12:44:10.031Z,34.85
2022-08-09T12:46:49.011Z,35.06
2022-08-09T12:49:18.341Z,35.17
2022-08-09T12:52:02.655Z,35.22
2022-08-09T12:56:02.339Z,35.35
2022-08-09T12:57:46.176Z,35.66
2022-08-09T13:00:18.601Z,36.08
2022-08-09T13:02:57.807Z,35.91
2022-08-09T13:05:52.476Z,36.36
2022-08-09T13:08:39.766Z,35.69
2022-08-09T13:11:23.018Z,34.85
2022-08-09T13:14:42.486Z,35.10
2022-08-09T13:16:47.654Z,34.62
2022-08-09T13:20:09.772Z,34.32
2022-08-09T13:22:35.530Z,34.52
2022-08-09T13:25:07.627Z,33.75
2022-08-09T13:27:39.870Z,34.42
2022-08-09T13:30:51.591Z,33.88
2022-08-09T13:33:11.700Z,33.87
2022-08-09T13:36:24.723Z,34.16
2022-08-09T13:38:57.238Z,33.76
2022-08-09T13:41:57.881Z,33.80
2022-08-09T13:44:13.800Z,34.08
2022-08-09T13:47:25.234Z,33.24
2022-08-09T13:49:37.784Z,33.27
2022-08-09T13:52:09.160Z,33.28
2022-08-09T13:54:43.065Z,33.70
2022-08-09T13:57:36.934Z,33.77
2022-08-09T14:00:18.621Z,33.71
2022-08-09T14:03:03.939Z,33.78
2022-08-09T14:05:56.461Z,34.39
2022-08-09T14:08:26.851Z,34.80
2022-08-09T14:10:55.570Z,34.59
2022-08-09T14:14:16.418Z,35.31
2022-08-09T14:16:18.663Z,34.96
2022-08-09T14:18:51.698Z,34.94
2022-08-09T14:21:24.388Z,35.20
2022-08-09T14:23:56.709Z,34.67
2022-08-09T14:26:32.089Z,34.67
2022-08-09T14:29:08.103Z,34.20
2022-08-09T14:31:53.444Z,34.03
2022-08-09T14:34:30.726Z,33.36
2022-08-09T14:37:07.494Z,33.67
2022-08-09T14:39:46.915Z,34.46
2022-08-09T14:42:30.275Z,34.31
2022-08-09T14:46:39.805Z,34.15
2022-08-09T14:47:57.995Z,33.83
2022-08-09T14:50:27.356Z,33.88
2022-08-09T14:52:54.518Z,33.91
2022-08-09T14:55:21.680Z,33.19
2022-08-09T14:57:49.322Z,33.69
2022-08-09T15:00:18.058Z,33.88
2022-08-09T15:02:47.795Z,33.58
2022-08-09T15:05:19.718Z,33.20
2022-08-09T15:07:54.843Z,33.32
2022-08-09T15:10:25.578Z,32.71
2022-08-09T15:12:56.851Z,32.42
2022-08-09T15:15:24.774Z,32.07
2022-08-09T15:17:56.289Z,31.75
2022-08-09T15:22:01.049Z,31.72
2022-08-09T15:24:05.656Z,32.50
2022-08-09T15:25:59.210Z,32.94
2022-08-09T15:28:28.526Z,32.98
2022-08-09T15:31:10.132Z,33.22
2022-08-09T15:34:15.543Z,33.04
2022-08-09T15:36:29.098Z,33.18
2022-08-09T15:38:58.899Z,33.36
2022-08-09T15:41:31.574Z,33.79
2022-08-09T15:44:01.762Z,33.59
2022-08-09T15:46:33.525Z,33.43
2022-08-09T15:49:21.860Z,33.60
2022-08-09T15:52:03.214Z,33.67
2022-08-09T15:54:44.745Z,33.89
2022-08-09T15:57:34.274Z,33.42
2022-08-09T16:00:24.381Z,34.18
2022-08-09T16:02:56.538Z,34.69
2022-08-09T16:05:47.606Z,35.39
2022-08-09T16:08:30.028Z,35.91
2022-08-09T16:10:59.747Z,35.31
2022-08-09T16:14:02.753Z,35.21
2022-08-09T16:16:18.323Z,35.85
2022-08-09T16:18:49.848Z,35.60
2022-08-09T16:21:25.582Z,36.04
2022-08-09T16:23:58.766Z,35.74
2022-08-09T16:26:34.484Z,35.58
2022-08-09T16:29:20.679Z,36.18
2022-08-09T16:32:17.828Z,35.99
2022-08-09T16:34:55.064Z,35.84
2022-08-09T16:37:54.572Z,36.06
2022-08-09T16:40:13.030Z,36.08
2022-08-09T16:42:45.369Z,36.47
2022-08-09T16:45:18.625Z,36.47
2022-08-09T16:48:40.590Z,36.56
2022-08-09T16:50:38.527Z,36.76
2022-08-09T16:53:05.928Z,36.79
2022-08-09T16:55:59.842Z,36.37
2022-08-09T16:58:21.139Z,36.15
2022-08-09T17:00:49.532Z,35.63
2022-08-09T17:03:22.192Z,35.24
2022-08-09T17:06:07.036Z,35.30
2022-08-09T17:09:02.754Z,35.05
2022-08-09T17:11:40.812Z,35.25
2022-08-09T17:14:25.821Z,34.67
2022-08-09T17:16:59.954Z,34.47
2022-08-09T17:19:46.886Z,34.55
2022-08-09T17:22:23.675Z,34.23
2022-08-09T17:24:55.369Z,34.52
2022-08-09T17:27:22.932Z,34.17
2022-08-09T17:29:51.441Z,34.97
2022-08-09T17:32:20.303Z,35.59
2022-08-09T17:35:01.415Z,35.46
2022-08-09T17:38:11.467Z,35.69
2022-08-09T17:40:25.928Z,35.81
2022-08-09T17:42:59.548Z,35.95
2022-08-09T17:46:01.885Z,36.52
2022-08-09T17:48:17.524Z,36.23
2022-08-09T17:50:56.433Z,36.62
2022-08-09T17:53:31.924Z,36.96
2022-08-09T17:56:03.282Z,36.53
2022-08-09T17:58:34.579Z,36.97
2022-08-09T18:01:01.660Z,37.89
2022-08-09T18:03:30.491Z,37.79
2022-08-09T18:06:01.025Z,37.96
2022-08-09T18:08:28.879Z,38.33
2022-08-09T18:11:01.600Z,38.01
2022-08-09T18:13:43.094Z,38.63
2022-08-09T18:16:28.918Z,39.01
2022-08-09T18:18:57.144Z,39.34
2022-08-09T18:21:26.188Z,39.94
2022-08-09T18:24:10.591Z,40.38
2022-08-09T18:26:46.375Z,40.62
2022-08-09T18:30:42.195Z,41.64
2022-08-09T18:32:03.083Z,41.64
2022-08-09T18:34:31.648Z,42.17
2022-08-09T18:36:58.875Z,42.37
2022-08-09T18:39:32.598Z,42.50
2022-08-09T18:42:05.368Z,42.49
2022-08-09T18:44:35.898Z,42.94
2022-08-09T18:47:05.156Z,42.42
2022-08-09T18:49:43.227Z,43.18
2022-08-09T18:52:16.077Z,42.67
2022-08-09T18:54:52.635Z,43.28
2022-08-09T18:57:21.871Z,43.43
2022-08-09T18:59:55.382Z,44.08
2022-08-09T19:02:31.993Z,43.95
2022-08-09T19:05:03.667Z,44.16
2022-08-09T19:07:43.292Z,43.66
2022-08-09T19:10:29.579Z,43.66
2022-08-09T19:13:21.953Z,44.36
2022-08-09T19:15:52.441Z,44.63
2022-08-09T19:18:35.767Z,44.90
2022-08-09T19:21:09.171Z,44.70
2022-08-09T19:24:31.882Z,44.96
2022-08-09T19:26:31.548Z,44.85
2022-08-09T19:29:15.117Z,45.37
2022-08-09T19:31:46.525Z,45.57
2022-08-09T19:34:22.780Z,46.01
2022-08-09T19:36:52.415Z,45.79
2022-08-09T19:39:29.057Z,45.53
2022-08-09T19:42:07.355Z,46.15
2022-08-09T19:44:34.299Z,46.49
2022-08-09T19:47:01.859Z,45.99
2022-08-09T19:50:07.640Z,46.85
2022-08-09T19:52:16.363Z,46.43
2022-08-09T19:54:45.263Z,46.52
2022-08-09T19:57:12.523Z,46.43
2022-08-09T20:00:05.670Z,46.97
2022-08-09T20:04:07.524Z,47.19
2022-08-09T20:05:16.622Z,47.50
2022-08-09T20:07:59.671Z,47.54
2022-08-09T20:10:36.225Z,47.75
2022-08-09T20:13:06.561Z,47.57
2022-08-09T20:16:36.942Z,47.81
2022-08-09T20:18:22.783Z,47.77
2022-08-09T20:20:55.579Z,47.93
2022-08-09T20:23:23.669Z,47.91
2022-08-09T20:25:53.455Z,48.12
2022-08-09T20:28:27.997Z,48.18
2022-08-09T20:31:04.962Z,47.99
2022-08-09T20:33:38.895Z,48.11
2022-08-09T20:36:09.359Z,48.24
2022-08-09T20:39:28.913Z,48.66
2022-08-09T20:41:35.198Z,49.08
2022-08-09T20:44:06.857Z,49.39
2022-08-09T20:46:43.324Z,49.52
2022-08-09T20:49:16.005Z,49.77
2022-08-09T20:51:45.410Z,50.19
2022-08-09T20:54:18.021Z,49.83
2022-08-09T20:56:47.136Z,49.82
2022-08-09T20:59:16.709Z,49.96
2022-08-09T21:01:50.482Z,49.43
2022-08-09T21:05:52.141Z,49.57
2022-08-09T21:07:12.767Z,49.80
2022-08-09T21:09:56.351Z,49.66
2022-08-09T21:15:23.631Z,49.97
2022-08-09T21:18:21.119Z,49.78
2022-08-09T21:20:51.772Z,49.62
2022-08-09T21:23:21.219Z,49.84
2022-08-09T21:25:59.373Z,49.89
2022-08-09T21:28:34.303Z,50.00
2022-08-09T21:31:13.509Z,50.11
2022-08-09T21:33:51.505Z,49.92
2022-08-09T21:36:27.922Z,50.15
2022-08-09T21:38:58.634Z,50.22
2022-08-09T21:42:00.193Z,50.46
2022-08-09T21:44:32.724Z,50.73
2022-08-09T21:47:04.721Z,50.95
2022-08-09T21:49:39.589Z,50.97
2022-08-09T21:52:16.669Z,50.87
2022-08-09T21:54:59.383Z,50.80
2022-08-09T21:57:38.324Z,50.71
2022-08-09T22:00:33.349Z,50.83
2022-08-09T22:03:07.480Z,50.57
2022-08-09T22:05:42.386Z,50.79
2022-08-09T22:08:14.583Z,50.80
2022-08-09T22:11:48.991Z,51.47
2022-08-09T22:13:37.221Z,51.01
2022-08-09T22:16:09.057Z,51.35
2022-08-09T22:18:53.041Z,51.59
2022-08-09T22:21:27.454Z,51.23
2022-08-09T22:24:16.647Z,51.20
2022-08-09T22:26:47.818Z,51.38
2022-08-09T22:29:19.449Z,51.41
2022-08-09T22:31:57.049Z,51.68
2022-08-09T22:34:26.441Z,51.64
2022-08-09T22:36:58.463Z,52.19
2022-08-09T22:39:57.097Z,52.03
2022-08-09T22:42:20.752Z,52.27
2022-08-09T22:44:48.887Z,52.28
2022-08-09T22:48:14.691Z,52.06
2022-08-09T22:50:13.784Z,52.21
2022-08-09T22:52:40.706Z,52.24
2022-08-09T22:55:08.594Z,52.28
2022-08-09T22:57:59.973Z,52.67
2022-08-09T23:00:29.292Z,52.55
2022-08-09T23:02:56.785Z,52.46
2022-08-09T23:05:25.585Z,52.62
2022-08-09T23:08:23.047Z,52.67
2022-08-09T23:10:56.354Z,52.76
2022-08-09T23:13:23.411Z,52.83
2022-08-09T23:16:03.378Z,52.98
2022-08-09T23:18:31.124Z,53.08
2022-08-09T23:20:58.043Z,53.19
2022-08-09T23:23:25.044Z,54.13
2022-08-09T23:25:52.029Z,54.06
2022-08-09T23:28:18.919Z,54.73
2022-08-09T23:30:51.276Z,54.77
2022-08-09T23:33:20.833Z,55.25
2022-08-09T23:36:06.020Z,55.54
2022-08-09T23:38:35.952Z,55.19
2022-08-09T23:41:27.968Z,55.93
2022-08-09T23:43:58.551Z,55.54
2022-08-09T23:46:25.723Z,55.93
2022-08-09T23:48:52.655Z,55.19
2022-08-09T23:51:19.581Z,55.50
2022-08-09T23:53:47.442Z,55.16
2022-08-09T23:56:17.594Z,55.18
2022-08-09T23:59:04.919Z,55.31
